createdAt,value
2022-09-01T00:00:38.276Z,10.43
2022-09-01T00:03:42.972Z,9.67
2022-09-01T00:06:48.329Z,9.97
2022-09-01T00:09:51.673Z,11.33
2022-09-01T00:12:54.827Z,10.80
2022-09-01T00:15:58.159Z,10.97
2022-09-01T00:19:01.352Z,11.70
2022-09-01T00:22:06.413Z,11.20
2022-09-01T00:25:10.660Z,9.80
2022-09-01T00:28:13.799Z,9.20
2022-09-01T00:31:17.258Z,9.30
2022-09-01T00:34:20.999Z,9.63
2022-09-01T00:37:25.499Z,9.53
2022-09-01T00:40:28.763Z,9.20
2022-09-01T00:43:39.490Z,9.47
2022-09-01T00:46:50.369Z,9.10
2022-09-01T00:49:59.001Z,8.57
2022-09-01T00:53:03.611Z,9.57
2022-09-01T00:56:07.949Z,9.57
2022-09-01T00:59:13.233Z,8.70
2022-09-01T01:02:16.880Z,9.60
2022-09-01T01:05:21.704Z,9.33
2022-09-01T01:08:34.204Z,10.07
2022-09-01T01:11:37.584Z,10.30
2022-09-01T01:14:41.794Z,9.67
2022-09-01T01:17:49.018Z,9.70
2022-09-01T01:21:18.278Z,10.30
2022-09-01T01:24:28.096Z,9.73
2022-09-01T01:27:35.787Z,9.30
2022-09-01T01:30:52.300Z,10.90
2022-09-01T01:33:58.911Z,10.27
2022-09-01T01:37:02.009Z,10.50
2022-09-01T01:40:15.739Z,10.33
2022-09-01T01:43:23.246Z,10.20
2022-09-01T01:46:27.735Z,9.50
2022-09-01T01:49:31.283Z,9.40
2022-09-01T01:52:35.130Z,9.97
2022-09-01T01:55:43.861Z,9.37
2022-09-01T01:58:47.361Z,10.60
2022-09-01T02:01:51.296Z,10.40
2022-09-01T02:04:55.140Z,9.80
2022-09-01T02:08:04.024Z,10.70
2022-09-01T02:11:09.322Z,9.67
2022-09-01T02:14:13.561Z,9.20
2022-09-01T02:17:16.714Z,10.00
2022-09-01T02:20:20.149Z,8.70
2022-09-01T02:23:24.581Z,9.10
2022-09-01T02:26:32.184Z,9.30
2022-09-01T02:29:40.169Z,8.50
2022-09-01T02:32:47.230Z,8.67
2022-09-01T02:35:53.021Z,7.47
2022-09-01T02:38:56.496Z,7.97
2022-09-01T02:42:01.915Z,6.73
2022-09-01T02:45:08.201Z,6.50
2022-09-01T02:48:11.574Z,6.67
2022-09-01T02:51:16.893Z,6.00
2022-09-01T02:54:24.048Z,5.77
2022-09-01T02:57:29.493Z,6.53
2022-09-01T03:00:36.179Z,6.83
2022-09-01T03:03:39.272Z,8.00
2022-09-01T03:06:42.538Z,7.43
2022-09-01T03:09:45.761Z,7.10
2022-09-01T03:12:50.216Z,7.50
2022-09-01T03:15:53.323Z,6.03
2022-09-01T03:18:56.452Z,5.30
2022-09-01T03:22:00.249Z,7.10
2022-09-01T03:25:03.375Z,5.67
2022-09-01T03:28:08.267Z,7.60
2022-09-01T03:31:11.825Z,5.00
2022-09-01T03:34:16.493Z,5.10
2022-09-01T03:37:20.981Z,8.23
2022-09-01T03:40:24.981Z,5.37
2022-09-01T03:43:35.279Z,5.67
2022-09-01T03:46:40.516Z,5.47
2022-09-01T03:49:43.655Z,4.93
2022-09-01T03:52:46.884Z,4.80
2022-09-01T03:55:52.492Z,5.30
2022-09-01T03:58:58.758Z,5.30
2022-09-01T04:02:02.988Z,5.00
2022-09-01T04:05:08.572Z,5.20
2022-09-01T04:08:13.552Z,5.30
2022-09-01T04:11:19.121Z,5.03
2022-09-01T04:14:25.639Z,6.57
2022-09-01T04:17:47.932Z,5.17
2022-09-01T04:20:53.604Z,5.93
2022-09-01T04:24:05.603Z,5.47
2022-09-01T04:27:09.937Z,6.60
2022-09-01T04:30:16.670Z,5.83
2022-09-01T04:33:20.025Z,5.77
2022-09-01T04:36:25.430Z,5.80
2022-09-01T04:39:29.545Z,6.17
2022-09-01T04:42:35.324Z,7.07
2022-09-01T04:45:41.037Z,6.27
2022-09-01T04:48:46.135Z,6.13
2022-09-01T04:51:53.880Z,6.33
2022-09-01T04:54:58.233Z,5.80
2022-09-01T04:58:08.316Z,7.93
2022-09-01T05:01:19.123Z,6.20
2022-09-01T05:04:24.583Z,6.17
2022-09-01T05:07:28.102Z,6.60
2022-09-01T05:10:31.751Z,5.80
2022-09-01T05:13:35.782Z,6.00
2022-09-01T05:16:42.585Z,6.33
2022-09-01T05:19:48.675Z,6.50
2022-09-01T05:22:56.611Z,6.47
2022-09-01T05:26:01.218Z,6.37
2022-09-01T05:29:10.778Z,6.23
2022-09-01T05:32:15.455Z,6.83
2022-09-01T05:35:18.909Z,6.83
2022-09-01T05:38:22.110Z,5.43
2022-09-01T05:41:25.313Z,6.63
2022-09-01T05:44:28.756Z,6.00
2022-09-01T05:47:34.452Z,5.87
2022-09-01T05:50:41.385Z,5.80
2022-09-01T05:53:44.857Z,5.37
2022-09-01T05:56:48.961Z,5.90
2022-09-01T05:59:54.263Z,5.57
2022-09-01T06:02:59.082Z,6.90
2022-09-01T06:06:12.337Z,5.30
2022-09-01T06:09:18.208Z,6.10
2022-09-01T06:12:23.515Z,4.83
2022-09-01T06:15:29.576Z,6.07
2022-09-01T06:18:34.348Z,5.47
2022-09-01T06:21:37.746Z,5.60
2022-09-01T06:24:43.609Z,5.93
2022-09-01T06:27:49.575Z,4.90
2022-09-01T06:30:53.748Z,4.83
2022-09-01T06:34:00.031Z,5.50
2022-09-01T06:37:03.149Z,5.90
2022-09-01T06:40:10.723Z,6.13
2022-09-01T06:43:16.302Z,6.23
2022-09-01T06:46:20.203Z,5.10
2022-09-01T06:49:32.612Z,5.00
2022-09-01T06:55:59.602Z,5.63
2022-09-01T06:59:05.198Z,5.47
2022-09-01T07:02:12.634Z,5.50
2022-09-01T07:12:28.911Z,5.00
2022-09-01T07:18:58.953Z,3.97
2022-09-01T07:22:07.042Z,4.10
2022-09-01T07:25:12.771Z,4.50
2022-09-01T07:28:19.116Z,4.30
2022-09-01T07:34:50.144Z,3.73
2022-09-01T07:44:44.101Z,3.30
2022-09-01T07:47:54.960Z,3.40
2022-09-01T07:54:24.062Z,3.87
2022-09-01T07:57:27.224Z,3.00
2022-09-01T08:00:31.441Z,3.00
2022-09-01T08:03:35.044Z,2.85
2022-09-01T08:06:39.143Z,2.88
2022-09-01T08:09:44.355Z,2.55
2022-09-01T08:12:56.377Z,2.80
2022-09-01T08:16:08.348Z,2.90
2022-09-01T08:19:19.132Z,3.13
2022-09-01T08:22:24.315Z,2.40
2022-09-01T08:25:29.764Z,2.47
2022-09-01T08:28:33.572Z,3.50
2022-09-01T08:31:36.840Z,2.40
2022-09-01T08:34:40.057Z,5.60
2022-09-01T08:37:43.921Z,2.10
2022-09-01T08:40:56.837Z,2.92
2022-09-01T08:44:06.678Z,3.30
2022-09-01T08:47:15.504Z,2.80
2022-09-01T08:50:20.709Z,3.13
2022-09-01T08:53:32.605Z,2.90
2022-09-01T08:56:37.974Z,2.80
2022-09-01T08:59:41.155Z,2.75
2022-09-01T09:02:54.704Z,3.22
2022-09-01T09:06:08.125Z,3.28
2022-09-01T09:09:11.747Z,2.05
2022-09-01T09:12:48.970Z,2.50
2022-09-01T09:16:07.258Z,2.67
2022-09-01T09:19:18.110Z,2.33
2022-09-01T09:22:21.573Z,2.35
2022-09-01T09:25:25.449Z,2.20
2022-09-01T09:28:29.940Z,3.95
2022-09-01T09:31:35.901Z,2.20
2022-09-01T09:34:41.932Z,2.42
2022-09-01T09:37:45.685Z,2.70
2022-09-01T09:41:20.323Z,2.60
2022-09-01T09:44:30.551Z,2.03
2022-09-01T09:47:44.007Z,2.30
2022-09-01T09:50:47.827Z,2.13
2022-09-01T09:53:54.279Z,2.63
2022-09-01T09:57:13.470Z,2.55
2022-09-01T10:00:24.507Z,2.65
2022-09-01T10:03:37.466Z,2.35
2022-09-01T10:06:45.334Z,2.22
2022-09-01T10:09:49.202Z,3.83
2022-09-01T10:12:54.024Z,3.20
2022-09-01T10:16:00.991Z,3.17
2022-09-01T10:19:12.755Z,3.03
2022-09-01T10:22:16.344Z,2.60
2022-09-01T10:25:22.508Z,3.57
2022-09-01T10:28:26.823Z,2.70
2022-09-01T10:31:32.799Z,3.20
2022-09-01T10:34:42.128Z,2.60
2022-09-01T10:37:45.701Z,3.30
2022-09-01T10:41:07.744Z,3.30
2022-09-01T10:44:13.083Z,2.43
2022-09-01T10:47:30.074Z,3.00
2022-09-01T10:50:36.781Z,3.80
2022-09-01T10:53:42.024Z,4.27
2022-09-01T10:56:51.982Z,4.03
2022-09-01T10:59:58.193Z,4.23
2022-09-01T11:03:42.043Z,3.30
2022-09-01T11:07:17.168Z,4.10
2022-09-01T11:10:41.378Z,5.43
2022-09-01T11:13:49.913Z,5.50
2022-09-01T11:17:16.079Z,4.40
2022-09-01T11:20:27.978Z,4.77
2022-09-01T11:23:32.281Z,4.47
2022-09-01T11:26:49.961Z,4.00
2022-09-01T11:29:55.701Z,4.47
2022-09-01T11:33:04.929Z,5.17
2022-09-01T11:36:16.993Z,4.33
2022-09-01T11:39:34.678Z,4.13
2022-09-01T11:42:46.714Z,4.17
2022-09-01T11:46:03.698Z,4.20
2022-09-01T11:49:19.074Z,3.70
2022-09-01T11:52:26.310Z,3.53
2022-09-01T11:55:31.742Z,3.53
2022-09-01T11:58:39.493Z,3.07
2022-09-01T12:01:42.691Z,3.47
2022-09-01T12:04:46.372Z,4.30
2022-09-01T12:07:51.036Z,4.60
2022-09-01T12:11:05.028Z,3.13
2022-09-01T12:14:11.615Z,3.53
2022-09-01T12:17:22.417Z,3.37
2022-09-01T12:20:29.950Z,2.93
2022-09-01T12:23:36.924Z,3.03
2022-09-01T12:26:40.848Z,3.47
2022-09-01T12:29:44.772Z,3.30
2022-09-01T12:32:49.131Z,3.13
2022-09-01T12:35:56.039Z,3.70
2022-09-01T12:39:24.559Z,3.30
2022-09-01T12:42:41.573Z,2.73
2022-09-01T12:45:48.595Z,3.20
2022-09-01T12:48:51.753Z,2.97
2022-09-01T12:52:14.727Z,3.40
2022-09-01T12:58:52.258Z,2.97
2022-09-01T13:01:55.510Z,3.60
2022-09-01T13:05:20.618Z,5.83
2022-09-01T13:08:27.163Z,3.07
2022-09-01T13:14:55.567Z,4.83
2022-09-01T13:17:58.932Z,11.57
2022-09-01T13:21:02.485Z,7.03
2022-09-01T13:24:07.722Z,3.53
2022-09-01T13:27:21.201Z,2.60
2022-09-01T13:30:28.426Z,6.23
2022-09-01T13:34:09.233Z,2.67
2022-09-01T13:36:55.260Z,1.93
2022-09-01T13:39:58.438Z,2.50
2022-09-01T13:43:04.749Z,3.03
2022-09-01T13:46:08.246Z,2.20
2022-09-01T13:52:35.415Z,2.87
2022-09-01T13:55:41.250Z,2.40
2022-09-01T13:58:46.328Z,2.50
2022-09-01T14:01:51.360Z,2.53
2022-09-01T14:04:54.592Z,2.23
2022-09-01T14:07:58.849Z,3.17
2022-09-01T14:11:02.948Z,2.33
2022-09-01T14:14:07.974Z,2.93
2022-09-01T14:17:11.108Z,2.73
2022-09-01T14:20:16.780Z,3.53
2022-09-01T14:23:20.924Z,2.90
2022-09-01T14:26:24.058Z,2.90
2022-09-01T14:29:32.710Z,2.77
2022-09-01T14:32:36.560Z,4.53
2022-09-01T14:35:41.304Z,2.57
2022-09-01T14:38:44.421Z,3.23
2022-09-01T14:41:47.589Z,2.47
2022-09-01T14:44:52.274Z,3.33
2022-09-01T14:48:00.796Z,2.83
2022-09-01T14:51:04.364Z,4.30
2022-09-01T14:54:07.459Z,3.17
2022-09-01T15:00:37.042Z,3.00
2022-09-01T15:03:40.178Z,3.37
2022-09-01T15:06:43.311Z,2.30
2022-09-01T15:09:46.434Z,1.70
2022-09-01T15:12:49.859Z,3.57
2022-09-01T15:15:54.439Z,3.40
2022-09-01T15:18:57.607Z,2.33
2022-09-01T15:22:00.999Z,3.43
2022-09-01T15:25:04.276Z,2.00
2022-09-01T15:28:07.708Z,2.53
2022-09-01T15:31:12.978Z,3.20
2022-09-01T15:34:18.977Z,3.00
2022-09-01T15:37:22.090Z,1.53
2022-09-01T15:40:26.616Z,1.97
2022-09-01T15:43:30.275Z,2.23
2022-09-01T15:46:36.151Z,1.73
2022-09-01T15:49:39.312Z,2.20
2022-09-01T15:52:50.706Z,2.30
2022-09-01T15:55:53.827Z,4.00
2022-09-01T15:59:01.125Z,3.43
2022-09-01T16:02:06.589Z,3.37
2022-09-01T16:05:11.112Z,2.33
2022-09-01T16:08:14.210Z,1.60
2022-09-01T16:11:17.382Z,3.40
2022-09-01T16:14:22.763Z,1.67
2022-09-01T16:17:42.102Z,2.27
2022-09-01T16:20:55.110Z,2.60
2022-09-01T16:24:01.525Z,4.80
2022-09-01T16:27:10.822Z,2.10
2022-09-01T16:30:17.212Z,2.13
2022-09-01T16:33:21.667Z,2.50
2022-09-01T16:36:38.040Z,1.93
2022-09-01T16:39:47.225Z,2.20
2022-09-01T16:42:58.179Z,2.73
2022-09-01T16:46:07.518Z,2.20
2022-09-01T16:49:19.311Z,1.83
2022-09-01T16:52:26.573Z,2.10
2022-09-01T16:55:37.244Z,1.97
2022-09-01T16:58:51.147Z,1.53
2022-09-01T17:02:06.906Z,1.83
2022-09-01T17:05:20.561Z,2.00
2022-09-01T17:08:27.383Z,1.63
2022-09-01T17:11:40.389Z,3.43
2022-09-01T17:14:48.162Z,3.13
2022-09-01T17:18:00.791Z,1.87
2022-09-01T17:21:15.142Z,1.73
2022-09-01T17:24:30.008Z,2.20
2022-09-01T17:27:37.961Z,1.93
2022-09-01T17:30:50.049Z,1.90
2022-09-01T17:34:03.027Z,3.20
2022-09-01T17:37:17.657Z,3.00
2022-09-01T17:40:26.165Z,4.97
2022-09-01T17:43:36.068Z,2.27
2022-09-01T17:46:44.306Z,2.90
2022-09-01T17:49:54.688Z,1.70
2022-09-01T17:53:10.156Z,2.73
2022-09-01T17:56:26.944Z,2.10
2022-09-01T17:59:36.733Z,1.60
2022-09-01T18:02:58.262Z,1.70
2022-09-01T18:06:05.615Z,2.03
2022-09-01T18:09:11.200Z,2.00
2022-09-01T18:12:18.627Z,2.87
2022-09-01T18:15:23.613Z,5.10
2022-09-01T18:18:35.098Z,1.90
2022-09-01T18:21:45.217Z,1.90
2022-09-01T18:24:58.976Z,4.20
2022-09-01T18:28:02.581Z,2.57
2022-09-01T18:31:21.815Z,2.07
2022-09-01T18:34:36.157Z,3.47
2022-09-01T18:37:46.362Z,2.60
2022-09-01T18:41:03.921Z,1.77
2022-09-01T18:44:21.185Z,4.10
2022-09-01T18:47:31.085Z,2.13
2022-09-01T18:50:43.767Z,2.37
2022-09-01T18:53:52.697Z,2.17
2022-09-01T18:57:01.619Z,4.40
2022-09-01T19:00:18.247Z,2.90
2022-09-01T19:03:28.727Z,2.10
2022-09-01T19:06:39.879Z,2.40
2022-09-01T19:09:51.292Z,2.33
2022-09-01T19:13:02.035Z,3.40
2022-09-01T19:16:14.187Z,2.50
2022-09-01T19:19:33.186Z,2.33
2022-09-01T19:22:43.559Z,2.27
2022-09-01T19:25:46.834Z,3.27
2022-09-01T19:28:55.173Z,2.37
2022-09-01T19:32:03.264Z,2.50
2022-09-01T19:35:12.499Z,3.20
2022-09-01T19:38:24.099Z,2.10
2022-09-01T19:41:33.377Z,2.30
2022-09-01T19:44:47.070Z,4.03
2022-09-01T19:47:58.043Z,2.50
2022-09-01T19:51:06.481Z,2.10
2022-09-01T19:54:16.215Z,2.30
2022-09-01T19:57:26.120Z,2.57
2022-09-01T20:00:42.052Z,2.40
2022-09-01T20:03:51.909Z,2.00
2022-09-01T20:07:00.299Z,3.33
2022-09-01T20:10:16.622Z,2.37
2022-09-01T20:13:50.286Z,2.30
2022-09-01T20:16:57.245Z,4.00
2022-09-01T20:20:08.732Z,3.17
2022-09-01T20:23:16.964Z,3.37
2022-09-01T20:26:25.486Z,3.43
2022-09-01T20:29:36.099Z,1.60
2022-09-01T20:32:46.109Z,2.07
2022-09-01T20:35:52.482Z,2.00
2022-09-01T20:39:16.455Z,2.20
2022-09-01T20:42:31.508Z,3.40
2022-09-01T20:45:34.681Z,2.37
2022-09-01T20:48:42.652Z,2.10
2022-09-01T20:51:55.804Z,2.30
2022-09-01T20:55:02.665Z,3.03
2022-09-01T20:58:14.964Z,2.30
2022-09-01T21:01:22.257Z,3.30
2022-09-01T21:04:39.008Z,2.07
2022-09-01T21:07:50.443Z,1.60
2022-09-01T21:11:00.063Z,1.90
2022-09-01T21:14:14.204Z,1.80
2022-09-01T21:17:25.583Z,2.17
2022-09-01T21:20:39.456Z,3.63
2022-09-01T21:23:42.581Z,3.10
2022-09-01T21:26:45.918Z,3.13
2022-09-01T21:29:55.543Z,2.50
2022-09-01T21:32:59.142Z,2.37
2022-09-01T21:36:04.178Z,2.10
2022-09-01T21:39:07.406Z,2.30
2022-09-01T21:42:12.344Z,3.27
2022-09-01T21:45:18.185Z,2.20
2022-09-01T21:48:21.493Z,2.03
2022-09-01T21:51:25.962Z,2.90
2022-09-01T21:54:29.048Z,3.10
2022-09-01T21:57:32.533Z,2.13
2022-09-01T22:00:40.414Z,3.77
2022-09-01T22:03:43.730Z,2.43
2022-09-01T22:06:48.449Z,1.90
2022-09-01T22:09:51.515Z,1.90
2022-09-01T22:12:55.445Z,2.87
2022-09-01T22:15:58.543Z,3.60
2022-09-01T22:19:02.012Z,2.40
2022-09-01T22:22:06.684Z,2.90
2022-09-01T22:25:13.568Z,4.30
2022-09-01T22:28:16.668Z,2.53
2022-09-01T22:31:21.823Z,2.70
2022-09-01T22:34:24.994Z,1.97
2022-09-01T22:37:29.509Z,2.80
2022-09-01T22:40:32.654Z,1.97
2022-09-01T22:43:35.939Z,4.07
2022-09-01T22:46:40.306Z,3.53
2022-09-01T22:49:43.497Z,3.13
2022-09-01T22:52:47.953Z,3.30
2022-09-01T22:55:52.701Z,3.70
2022-09-01T22:58:57.777Z,2.50
2022-09-01T23:02:01.210Z,3.10
2022-09-01T23:05:05.990Z,2.50
2022-09-01T23:08:11.402Z,2.47
2022-09-01T23:11:15.268Z,5.40
2022-09-01T23:14:19.565Z,4.53
2022-09-01T23:17:22.656Z,2.77
2022-09-01T23:20:25.773Z,1.97
2022-09-01T23:23:30.373Z,4.20
2022-09-01T23:26:34.856Z,2.80
2022-09-01T23:29:37.964Z,1.93
2022-09-01T23:32:41.428Z,2.53
2022-09-01T23:35:44.962Z,2.00
2022-09-01T23:38:49.742Z,3.90
2022-09-01T23:41:52.898Z,2.77
2022-09-01T23:44:55.985Z,3.10
2022-09-01T23:47:59.137Z,3.53
2022-09-01T23:51:11.275Z,3.50
2022-09-01T23:54:16.668Z,2.63
2022-09-01T23:57:20.588Z,3.93
